createdAt,value
2019-01-14T00:00:48.965Z,15.73
2019-01-14T00:03:16.397Z,24.23
2019-01-14T00:05:43.800Z,18.47
2019-01-14T00:08:11.221Z,21.60
2019-01-14T00:10:38.668Z,19.13
2019-01-14T00:13:06.082Z,23.03
2019-01-14T00:15:33.496Z,25.17
2019-01-14T00:18:00.893Z,16.20
2019-01-14T00:20:28.332Z,17.53
2019-01-14T00:22:55.733Z,15.97
2019-01-14T00:25:23.129Z,20.70
2019-01-14T00:27:50.888Z,18.10
2019-01-14T00:30:18.451Z,17.80
2019-01-14T00:32:45.847Z,22.07
2019-01-14T00:35:13.284Z,20.43
2019-01-14T00:37:40.683Z,23.77
2019-01-14T00:40:08.127Z,20.27
2019-01-14T00:42:35.536Z,19.37
2019-01-14T00:45:02.971Z,16.10
2019-01-14T00:47:30.366Z,19.40
2019-01-14T00:49:57.902Z,21.07
2019-01-14T00:52:25.304Z,21.03
2019-01-14T00:54:52.702Z,21.50
2019-01-14T00:57:20.132Z,24.87
2019-01-14T00:59:47.548Z,18.33
2019-01-14T01:02:14.976Z,19.30
2019-01-14T01:04:42.403Z,16.47
2019-01-14T01:07:09.803Z,17.73
2019-01-14T01:09:37.223Z,19.97
2019-01-14T01:12:04.689Z,21.73
2019-01-14T01:14:32.112Z,19.73
2019-01-14T01:16:59.570Z,21.83
2019-01-14T01:19:30.050Z,20.90
2019-01-14T01:21:57.468Z,17.33
2019-01-14T01:24:24.898Z,21.03
2019-01-14T01:26:52.296Z,17.87
2019-01-14T01:29:19.701Z,18.53
2019-01-14T01:31:47.138Z,21.90
2019-01-14T01:34:14.539Z,20.67
2019-01-14T01:36:41.965Z,21.40
2019-01-14T01:39:09.379Z,23.43
2019-01-14T01:41:36.776Z,23.80
2019-01-14T01:44:04.234Z,19.67
2019-01-14T01:46:31.655Z,19.87
2019-01-14T01:48:59.068Z,23.63
2019-01-14T01:51:26.471Z,20.33
2019-01-14T01:53:53.867Z,22.47
2019-01-14T01:56:21.297Z,21.10
2019-01-14T01:58:48.703Z,18.90
2019-01-14T02:01:16.166Z,20.70
2019-01-14T02:03:43.578Z,26.27
2019-01-14T02:06:10.997Z,24.13
2019-01-14T02:08:38.399Z,20.20
2019-01-14T02:11:05.846Z,22.90
2019-01-14T02:13:33.231Z,23.17
2019-01-14T02:16:03.376Z,18.43
2019-01-14T02:18:30.815Z,16.90
2019-01-14T02:20:58.221Z,24.70
2019-01-14T02:23:27.425Z,24.90
2019-01-14T02:25:53.131Z,21.83
2019-01-14T02:28:23.226Z,18.57
2019-01-14T02:30:50.641Z,17.93
2019-01-14T02:33:18.064Z,20.27
2019-01-14T02:35:45.486Z,24.00
2019-01-14T02:38:13.409Z,18.10
2019-01-14T02:40:40.840Z,19.87
2019-01-14T02:43:08.366Z,20.17
2019-01-14T02:45:35.788Z,23.73
2019-01-14T02:48:03.205Z,16.17
2019-01-14T02:50:30.636Z,19.80
2019-01-14T02:53:00.635Z,22.17
2019-01-14T02:55:28.047Z,23.30
2019-01-14T02:57:55.469Z,21.90
2019-01-14T03:00:22.868Z,24.13
2019-01-14T03:02:50.300Z,20.67
2019-01-14T03:05:17.697Z,24.83
2019-01-14T03:07:48.046Z,24.17
2019-01-14T03:10:15.485Z,17.23
2019-01-14T03:12:42.887Z,24.30
2019-01-14T03:15:10.314Z,24.27
2019-01-14T03:17:37.783Z,20.93
2019-01-14T03:20:05.229Z,23.33
2019-01-14T03:22:32.633Z,21.07
2019-01-14T03:25:00.033Z,17.67
2019-01-14T03:27:27.442Z,22.17
2019-01-14T03:29:54.875Z,19.33
2019-01-14T03:33:01.051Z,29.63
2019-01-14T03:35:28.519Z,20.97
2019-01-14T03:37:55.996Z,21.53
2019-01-14T03:40:23.457Z,25.87
2019-01-14T03:42:50.903Z,28.10
2019-01-14T03:45:18.359Z,23.87
2019-01-14T03:47:45.862Z,17.33
2019-01-14T03:50:13.272Z,26.47
2019-01-14T03:52:40.684Z,24.40
2019-01-14T03:55:08.103Z,29.37
2019-01-14T03:57:35.504Z,26.77
2019-01-14T04:00:02.906Z,21.07
2019-01-14T04:02:30.340Z,24.67
2019-01-14T04:04:57.745Z,27.10
2019-01-14T04:07:25.184Z,22.37
2019-01-14T04:09:52.575Z,22.53
2019-01-14T04:12:20.001Z,24.37
2019-01-14T04:14:47.414Z,27.27
2019-01-14T04:17:14.847Z,23.63
2019-01-14T04:19:42.267Z,21.87
2019-01-14T04:22:09.678Z,26.93
2019-01-14T04:24:37.091Z,20.07
2019-01-14T04:27:04.505Z,28.47
2019-01-14T04:29:31.951Z,22.00
2019-01-14T04:31:59.353Z,22.70
2019-01-14T04:34:26.779Z,25.50
2019-01-14T04:36:54.543Z,26.73
2019-01-14T04:39:21.981Z,20.97
2019-01-14T04:41:49.389Z,31.40
2019-01-14T04:44:16.791Z,24.67
2019-01-14T04:46:44.218Z,32.53
2019-01-14T04:49:13.557Z,23.13
2019-01-14T04:51:39.044Z,19.10
2019-01-14T04:54:06.475Z,18.60
2019-01-14T04:56:33.880Z,24.00
2019-01-14T04:59:01.307Z,24.83
2019-01-14T05:01:28.826Z,19.70
2019-01-14T05:03:56.244Z,33.00
2019-01-14T05:06:23.665Z,23.47
2019-01-14T05:08:51.076Z,18.33
2019-01-14T05:11:18.506Z,17.83
2019-01-14T05:13:45.901Z,28.70
2019-01-14T05:16:13.303Z,21.47
2019-01-14T05:18:40.723Z,26.13
2019-01-14T05:21:08.138Z,30.93
2019-01-14T05:23:35.541Z,19.70
2019-01-14T05:26:03.277Z,21.70
2019-01-14T05:28:30.674Z,21.47
2019-01-14T05:30:58.105Z,20.07
2019-01-14T05:33:25.549Z,25.40
2019-01-14T05:35:52.961Z,26.03
2019-01-14T05:38:20.387Z,23.33
2019-01-14T05:40:47.831Z,23.43
2019-01-14T05:43:15.253Z,22.97
2019-01-14T05:45:42.671Z,16.40
2019-01-14T05:48:10.099Z,21.60
2019-01-14T05:50:37.499Z,18.70
2019-01-14T05:53:04.944Z,18.40
2019-01-14T05:55:32.347Z,24.03
2019-01-14T05:57:59.748Z,18.73
2019-01-14T06:00:29.901Z,23.20
2019-01-14T06:02:57.313Z,21.40
2019-01-14T06:05:24.790Z,17.27
2019-01-14T06:07:52.186Z,17.63
2019-01-14T06:10:19.587Z,20.43
2019-01-14T06:12:47.016Z,26.00
2019-01-14T06:15:14.423Z,24.33
2019-01-14T06:17:41.819Z,18.63
2019-01-14T06:20:12.137Z,20.37
2019-01-14T06:22:39.549Z,21.50
2019-01-14T06:25:06.992Z,24.97
2019-01-14T06:27:34.374Z,21.50
2019-01-14T06:30:01.780Z,30.13
2019-01-14T06:32:29.575Z,18.77
2019-01-14T06:34:56.970Z,16.50
2019-01-14T06:37:24.376Z,17.83
2019-01-14T06:39:51.765Z,20.50
2019-01-14T06:42:19.178Z,20.73
2019-01-14T06:44:46.611Z,21.87
2019-01-14T06:47:14.018Z,26.63
2019-01-14T06:49:41.439Z,21.03
2019-01-14T06:52:08.841Z,20.87
2019-01-14T06:54:36.232Z,21.00
2019-01-14T06:57:03.668Z,22.40
2019-01-14T06:59:31.085Z,18.93
2019-01-14T07:01:58.509Z,21.80
2019-01-14T07:04:25.914Z,17.53
2019-01-14T07:06:53.342Z,25.17
2019-01-14T07:09:20.772Z,13.23
2019-01-14T07:11:48.206Z,15.57
2019-01-14T07:14:15.825Z,16.57
2019-01-14T07:16:43.216Z,6.23
2019-01-14T07:19:10.648Z,8.50
2019-01-14T07:21:38.062Z,8.30
2019-01-14T07:24:05.492Z,7.87
2019-01-14T07:26:35.883Z,8.47
2019-01-14T07:29:04.227Z,15.47
2019-01-14T07:31:31.643Z,8.37
2019-01-14T07:33:59.049Z,6.27
2019-01-14T07:36:26.471Z,10.07
2019-01-14T07:38:53.899Z,8.87
2019-01-14T07:41:21.309Z,9.83
2019-01-14T07:43:48.708Z,9.70
2019-01-14T07:46:16.106Z,14.83
2019-01-14T07:48:43.534Z,13.67
2019-01-14T07:51:10.960Z,16.63
2019-01-14T07:53:38.356Z,14.93
2019-01-14T07:56:05.756Z,19.20
2019-01-14T07:58:33.218Z,21.70
2019-01-14T08:01:00.628Z,22.20
2019-01-14T08:03:28.060Z,23.77
2019-01-14T08:05:55.459Z,26.17
2019-01-14T08:08:22.887Z,28.50
2019-01-14T08:10:50.295Z,24.63
2019-01-14T08:13:17.715Z,27.30
2019-01-14T08:15:47.065Z,25.13
2019-01-14T08:18:12.552Z,25.13
2019-01-14T08:20:39.954Z,22.37
2019-01-14T08:23:07.390Z,23.70
2019-01-14T08:25:34.786Z,22.27
2019-01-14T08:28:02.229Z,27.27
2019-01-14T08:30:29.616Z,22.93
2019-01-14T08:32:58.264Z,32.80
2019-01-14T08:35:24.517Z,16.43
2019-01-14T08:37:51.933Z,26.33
2019-01-14T08:40:19.324Z,25.17
2019-01-14T08:42:46.745Z,19.63
2019-01-14T08:45:14.189Z,17.03
2019-01-14T08:47:41.611Z,24.70
2019-01-14T08:50:18.230Z,25.27
2019-01-14T08:52:45.650Z,29.40
2019-01-14T08:55:13.104Z,26.60
2019-01-14T08:57:40.481Z,29.83
2019-01-14T09:00:13.643Z,24.87
2019-01-14T09:02:41.077Z,22.53
2019-01-14T09:05:08.498Z,35.17
2019-01-14T09:07:35.917Z,31.77
2019-01-14T09:10:03.315Z,26.03
2019-01-14T09:12:30.721Z,21.33
2019-01-14T09:14:58.142Z,25.63
2019-01-14T09:17:25.575Z,21.13
2019-01-14T09:19:53.025Z,28.60
2019-01-14T09:22:20.419Z,24.33
2019-01-14T09:24:47.830Z,20.10
2019-01-14T09:27:15.256Z,27.33
2019-01-14T09:29:42.716Z,19.50
2019-01-14T09:32:10.132Z,13.53
2019-01-14T09:34:37.567Z,18.10
2019-01-14T09:37:04.967Z,27.73
2019-01-14T09:39:32.378Z,17.00
2019-01-14T09:41:59.816Z,15.83
2019-01-14T09:44:27.245Z,11.73
2019-01-14T09:46:54.634Z,15.73
2019-01-14T09:49:22.029Z,8.60
2019-01-14T09:51:49.477Z,21.07
2019-01-14T09:54:16.871Z,13.70
2019-01-14T09:56:44.277Z,10.93
2019-01-14T09:59:11.697Z,10.83
2019-01-14T10:01:39.101Z,11.67
2019-01-14T10:04:06.517Z,12.93
2019-01-14T10:06:33.920Z,10.63
2019-01-14T10:09:01.339Z,12.00
2019-01-14T10:11:28.747Z,9.13
2019-01-14T10:13:56.205Z,11.43
2019-01-14T10:16:23.607Z,12.03
2019-01-14T10:18:51.106Z,14.83
2019-01-14T10:21:18.499Z,11.63
2019-01-14T10:23:45.889Z,11.37
2019-01-14T10:26:13.320Z,9.57
2019-01-14T10:28:40.705Z,15.60
2019-01-14T10:31:08.136Z,9.90
2019-01-14T10:33:35.539Z,11.77
2019-01-14T10:36:02.959Z,7.30
2019-01-14T10:38:30.392Z,11.80
2019-01-14T10:40:57.822Z,9.33
2019-01-14T10:43:25.246Z,10.13
2019-01-14T10:45:55.446Z,7.57
2019-01-14T10:48:22.892Z,10.70
2019-01-14T10:50:50.280Z,7.27
2019-01-14T10:53:17.708Z,13.33
2019-01-14T10:55:45.121Z,11.20
2019-01-14T10:58:12.525Z,11.17
2019-01-14T11:00:39.967Z,14.57
2019-01-14T11:03:07.374Z,9.83
2019-01-14T11:05:34.790Z,9.83
2019-01-14T11:08:05.135Z,12.77
2019-01-14T11:10:32.531Z,12.30
2019-01-14T11:12:59.997Z,20.10
2019-01-14T11:15:27.401Z,12.43
2019-01-14T11:17:54.832Z,16.33
2019-01-14T11:20:25.187Z,15.27
2019-01-14T11:22:52.607Z,10.83
2019-01-14T11:25:20.007Z,13.57
2019-01-14T11:27:47.429Z,14.67
2019-01-14T11:30:14.860Z,13.37
2019-01-14T11:32:42.261Z,16.27
2019-01-14T11:35:09.709Z,16.43
2019-01-14T11:37:37.103Z,10.97
2019-01-14T11:40:16.604Z,10.63
2019-01-14T11:42:43.996Z,12.53
2019-01-14T11:45:11.412Z,10.10
2019-01-14T11:47:38.834Z,8.67
2019-01-14T11:50:09.108Z,12.33
2019-01-14T11:52:36.609Z,15.33
2019-01-14T11:55:04.038Z,8.93
2019-01-14T11:57:31.439Z,14.73
2019-01-14T11:59:58.837Z,12.07
2019-01-14T12:02:26.269Z,8.60
2019-01-14T12:04:53.680Z,7.37
2019-01-14T12:07:21.107Z,6.23
2019-01-14T12:09:48.532Z,3.80
2019-01-14T12:12:15.961Z,7.77
2019-01-14T12:14:43.351Z,5.60
2019-01-14T12:17:10.768Z,2.80
2019-01-14T12:19:38.162Z,4.30
2019-01-14T12:22:05.580Z,8.57
2019-01-14T12:24:32.990Z,10.20
2019-01-14T12:27:00.408Z,8.90
2019-01-14T12:29:27.827Z,9.70
2019-01-14T12:31:55.229Z,7.90
2019-01-14T12:34:22.618Z,6.23
2019-01-14T12:36:50.047Z,8.27
2019-01-14T12:39:19.629Z,7.60
2019-01-14T12:41:50.955Z,7.07
2019-01-14T12:44:12.309Z,8.90
2019-01-14T12:46:39.699Z,3.93
2019-01-14T12:49:07.092Z,7.20
2019-01-14T12:51:34.514Z,7.97
2019-01-14T12:54:01.908Z,9.33
2019-01-14T12:56:29.328Z,9.10
2019-01-14T12:58:56.756Z,6.73
2019-01-14T13:01:24.167Z,5.50
2019-01-14T13:03:51.593Z,5.93
2019-01-14T13:06:18.982Z,5.43
2019-01-14T13:08:46.396Z,4.20
2019-01-14T13:11:13.797Z,6.30
2019-01-14T13:13:41.197Z,7.03
2019-01-14T13:16:08.605Z,9.17
2019-01-14T13:18:35.999Z,6.97
2019-01-14T13:21:03.416Z,8.90
2019-01-14T13:23:32.287Z,6.87
2019-01-14T13:25:58.227Z,5.47
2019-01-14T13:28:25.624Z,7.10
2019-01-14T13:30:53.069Z,5.70
2019-01-14T13:33:20.466Z,8.27
2019-01-14T13:35:47.907Z,11.70
2019-01-14T13:38:15.308Z,11.10
2019-01-14T13:40:42.699Z,7.60
2019-01-14T13:43:10.130Z,8.00
2019-01-14T13:45:37.538Z,10.97
2019-01-14T13:48:06.279Z,5.93
2019-01-14T13:50:36.295Z,7.13
2019-01-14T13:53:03.716Z,6.53
2019-01-14T13:55:31.113Z,4.20
2019-01-14T13:58:00.179Z,7.83
2019-01-14T14:00:25.929Z,6.67
2019-01-14T14:02:56.086Z,11.23
2019-01-14T14:05:23.496Z,7.97
2019-01-14T14:07:50.924Z,6.87
2019-01-14T14:10:18.314Z,10.13
2019-01-14T14:12:45.736Z,8.53
2019-01-14T14:15:13.196Z,10.33
2019-01-14T14:17:40.587Z,6.93
2019-01-14T14:20:08.011Z,10.93
2019-01-14T14:22:35.428Z,12.17
2019-01-14T14:25:02.860Z,17.40
2019-01-14T14:27:31.526Z,8.90
2019-01-14T14:29:57.681Z,4.50
2019-01-14T14:32:25.091Z,7.47
2019-01-14T14:34:52.799Z,8.40
2019-01-14T14:37:20.240Z,5.67
2019-01-14T14:39:48.611Z,16.27
2019-01-14T14:42:15.052Z,7.30
2019-01-14T14:44:42.445Z,12.47
2019-01-14T14:47:09.857Z,5.50
2019-01-14T14:49:39.783Z,5.20
2019-01-14T14:52:07.195Z,8.97
2019-01-14T14:54:34.599Z,8.97
2019-01-14T14:57:02.008Z,6.13
2019-01-14T14:59:29.398Z,6.30
2019-01-14T15:01:56.853Z,7.03
2019-01-14T15:04:24.248Z,7.03
2019-01-14T15:06:51.644Z,10.83
2019-01-14T15:09:19.062Z,10.30
2019-01-14T15:11:46.457Z,8.13
2019-01-14T15:14:13.886Z,9.80
2019-01-14T15:16:41.287Z,12.53
2019-01-14T15:19:08.709Z,7.97
2019-01-14T15:21:36.122Z,7.17
2019-01-14T15:24:03.554Z,9.30
2019-01-14T15:26:31.276Z,9.07
2019-01-14T15:29:00.615Z,9.20
2019-01-14T15:31:28.018Z,12.30
2019-01-14T15:33:55.437Z,9.80
2019-01-14T15:36:22.863Z,7.73
2019-01-14T15:38:50.292Z,8.30
2019-01-14T15:41:17.718Z,8.50
2019-01-14T15:43:45.126Z,13.70
2019-01-14T15:46:12.531Z,13.37
2019-01-14T15:48:42.096Z,13.87
2019-01-14T15:51:09.510Z,16.20
2019-01-14T15:53:36.928Z,13.23
2019-01-14T15:56:04.328Z,9.67
2019-01-14T15:58:31.749Z,9.30
2019-01-14T16:00:59.131Z,9.93
2019-01-14T16:03:26.526Z,8.50
2019-01-14T16:05:53.949Z,8.00
2019-01-14T16:08:21.391Z,16.63
2019-01-14T16:10:48.745Z,8.63
2019-01-14T16:13:16.157Z,11.83
2019-01-14T16:15:46.403Z,12.30
2019-01-14T16:18:13.805Z,11.90
2019-01-14T16:20:41.202Z,12.10
2019-01-14T16:23:11.268Z,11.77
2019-01-14T16:25:38.666Z,12.27
2019-01-14T16:28:06.104Z,5.20
2019-01-14T16:30:33.503Z,13.87
2019-01-14T16:33:00.924Z,7.93
2019-01-14T16:35:28.322Z,8.37
2019-01-14T16:37:55.755Z,7.20
2019-01-14T16:40:23.130Z,11.20
2019-01-14T16:42:50.543Z,11.00
2019-01-14T16:45:17.999Z,15.97
2019-01-14T16:47:45.397Z,10.60
2019-01-14T16:50:12.812Z,18.03
2019-01-14T16:52:40.311Z,12.07
2019-01-14T16:55:07.776Z,11.00
2019-01-14T16:57:35.216Z,11.90
2019-01-14T17:00:02.628Z,8.67
2019-01-14T17:02:30.039Z,13.23
2019-01-14T17:04:57.502Z,15.83
2019-01-14T17:07:24.902Z,13.00
2019-01-14T17:09:52.316Z,12.80
2019-01-14T17:12:19.728Z,13.07
2019-01-14T17:14:49.251Z,14.20
2019-01-14T17:17:19.325Z,15.13
2019-01-14T17:19:46.751Z,9.80
2019-01-14T17:22:14.149Z,15.50
2019-01-14T17:24:41.596Z,10.17
2019-01-14T17:27:09.019Z,11.43
2019-01-14T17:29:36.417Z,11.07
2019-01-14T17:32:03.829Z,7.77
2019-01-14T17:34:31.221Z,8.20
2019-01-14T17:36:58.650Z,7.97
2019-01-14T17:39:26.042Z,8.37
2019-01-14T17:41:53.457Z,10.90
2019-01-14T17:44:20.920Z,11.83
2019-01-14T17:46:48.345Z,11.87
2019-01-14T17:49:15.764Z,19.63
2019-01-14T17:51:43.205Z,12.53
2019-01-14T17:54:10.620Z,9.07
2019-01-14T17:56:38.010Z,16.17
2019-01-14T17:59:05.499Z,12.97
2019-01-14T18:01:32.918Z,9.80
2019-01-14T18:04:00.325Z,11.33
2019-01-14T18:06:27.761Z,13.40
2019-01-14T18:08:55.173Z,11.50
2019-01-14T18:11:23.628Z,15.93
2019-01-14T18:13:51.042Z,14.40
2019-01-14T18:16:18.459Z,12.63
2019-01-14T18:18:45.873Z,12.27
2019-01-14T18:21:14.028Z,15.53
2019-01-14T18:23:40.799Z,8.17
2019-01-14T18:26:08.219Z,18.63
2019-01-14T18:28:35.645Z,11.83
2019-01-14T18:31:03.059Z,11.70
2019-01-14T18:33:32.587Z,16.67
2019-01-14T18:35:59.994Z,10.10
2019-01-14T18:38:27.444Z,13.67
2019-01-14T18:40:54.845Z,10.97
2019-01-14T18:43:22.258Z,16.20
2019-01-14T18:45:49.691Z,15.60
2019-01-14T18:48:17.138Z,16.07
2019-01-14T18:50:44.552Z,19.90
2019-01-14T18:53:11.972Z,15.93
2019-01-14T18:55:39.404Z,12.70
2019-01-14T18:58:06.829Z,18.80
2019-01-14T19:00:34.228Z,19.33
2019-01-14T19:03:01.644Z,14.43
2019-01-14T19:05:29.068Z,15.73
2019-01-14T19:07:56.470Z,13.53
2019-01-14T19:10:23.887Z,14.13
2019-01-14T19:12:51.274Z,11.67
2019-01-14T19:15:18.714Z,12.57
2019-01-14T19:17:46.102Z,21.50
2019-01-14T19:20:22.387Z,14.27
2019-01-14T19:22:49.774Z,7.60
2019-01-14T19:25:20.151Z,17.97
2019-01-14T19:27:47.581Z,15.10
2019-01-14T19:30:14.997Z,15.33
2019-01-14T19:32:42.388Z,13.27
2019-01-14T19:35:09.819Z,13.13
2019-01-14T19:37:37.237Z,13.63
2019-01-14T19:40:07.631Z,11.77
2019-01-14T19:42:35.065Z,10.97
2019-01-14T19:45:02.476Z,13.93
2019-01-14T19:47:29.915Z,15.20
2019-01-14T19:49:57.311Z,11.93
2019-01-14T19:52:24.726Z,13.60
2019-01-14T19:54:52.138Z,13.47
2019-01-14T19:57:22.287Z,18.77
2019-01-14T19:59:49.725Z,11.87
2019-01-14T20:02:17.160Z,15.10
2019-01-14T20:04:47.409Z,15.07
2019-01-14T20:07:14.813Z,12.67
2019-01-14T20:09:42.238Z,11.03
2019-01-14T20:12:09.633Z,14.37
2019-01-14T20:14:37.099Z,16.03
2019-01-14T20:17:07.080Z,17.50
2019-01-14T20:19:34.496Z,20.80
2019-01-14T20:22:01.933Z,17.60
2019-01-14T20:24:29.331Z,17.07
2019-01-14T20:26:56.773Z,13.93
2019-01-14T20:29:24.167Z,8.57
2019-01-14T20:31:51.602Z,11.80
2019-01-14T20:34:19.021Z,10.00
2019-01-14T20:36:46.425Z,14.32
2019-01-14T20:39:13.926Z,12.23
2019-01-14T20:41:41.333Z,11.77
2019-01-14T20:44:08.753Z,13.50
2019-01-14T20:46:36.250Z,9.60
2019-01-14T20:49:03.921Z,13.07
2019-01-14T20:51:34.351Z,17.40
2019-01-14T20:54:01.802Z,12.97
2019-01-14T20:56:29.202Z,14.13
2019-01-14T20:58:56.631Z,11.50
2019-01-14T21:01:24.048Z,11.17
2019-01-14T21:03:51.463Z,12.53
2019-01-14T21:06:22.475Z,16.87
2019-01-14T21:08:49.131Z,13.73
2019-01-14T21:11:23.646Z,11.67
2019-01-14T21:13:43.969Z,12.10
2019-01-14T21:16:11.377Z,13.57
2019-01-14T21:18:38.816Z,10.73
2019-01-14T21:21:06.237Z,12.50
2019-01-14T21:23:33.701Z,12.07
2019-01-14T21:26:01.096Z,11.33
2019-01-14T21:28:28.516Z,14.97
2019-01-14T21:30:55.948Z,12.55
2019-01-14T21:33:23.381Z,10.77
2019-01-14T21:35:50.787Z,10.33
2019-01-14T21:38:18.386Z,12.97
2019-01-14T21:40:45.648Z,14.37
2019-01-14T21:43:13.053Z,14.97
2019-01-14T21:45:40.505Z,11.80
2019-01-14T21:48:07.917Z,15.10
2019-01-14T21:50:35.321Z,19.67
2019-01-14T21:53:02.756Z,12.37
2019-01-14T21:55:30.483Z,13.97
2019-01-14T21:57:58.191Z,11.43
2019-01-14T22:00:25.613Z,9.53
2019-01-14T22:02:55.759Z,11.87
2019-01-14T22:05:23.163Z,12.30
2019-01-14T22:07:50.607Z,16.03
2019-01-14T22:10:20.904Z,10.03
2019-01-14T22:12:48.588Z,10.90
2019-01-14T22:15:16.022Z,14.93
2019-01-14T22:17:43.462Z,14.50
2019-01-14T22:20:22.738Z,17.20
2019-01-14T22:22:50.190Z,16.57
2019-01-14T22:25:17.646Z,16.53
2019-01-14T22:27:45.049Z,16.27
2019-01-14T22:30:12.515Z,20.30
2019-01-14T22:32:39.922Z,16.90
2019-01-14T22:35:07.650Z,15.10
2019-01-14T22:37:35.407Z,14.63
2019-01-14T22:40:02.805Z,11.43
2019-01-14T22:42:30.218Z,17.07
2019-01-14T22:44:57.637Z,11.83
2019-01-14T22:47:25.035Z,11.93
2019-01-14T22:49:52.498Z,14.27
2019-01-14T22:52:19.876Z,9.70
2019-01-14T22:54:47.304Z,19.63
2019-01-14T22:57:14.705Z,14.93
2019-01-14T22:59:43.086Z,15.97
2019-01-14T23:02:10.486Z,20.57
2019-01-14T23:04:37.960Z,22.47
2019-01-14T23:07:05.402Z,20.17
2019-01-14T23:09:33.152Z,20.67
2019-01-14T23:12:03.415Z,22.93
2019-01-14T23:14:30.835Z,20.27
2019-01-14T23:16:58.306Z,20.87
2019-01-14T23:19:25.719Z,21.10
2019-01-14T23:21:53.145Z,18.97
2019-01-14T23:24:20.542Z,23.30
2019-01-14T23:26:47.974Z,27.23
2019-01-14T23:29:15.378Z,25.40
2019-01-14T23:31:42.780Z,26.63
2019-01-14T23:34:10.212Z,27.87
2019-01-14T23:36:37.618Z,28.03
2019-01-14T23:39:05.044Z,27.43
2019-01-14T23:41:32.459Z,28.13
2019-01-14T23:43:59.889Z,29.53
2019-01-14T23:46:27.299Z,27.77
2019-01-14T23:48:54.728Z,32.60
2019-01-14T23:51:22.131Z,33.43
2019-01-14T23:53:49.702Z,32.87
2019-01-14T23:56:16.975Z,28.40
2019-01-14T23:58:44.407Z,26.63
